createdAt,value
2023-01-21T00:01:00.712Z,36.85
2023-01-21T00:03:07.909Z,35.53
2023-01-21T00:05:14.917Z,33.33
2023-01-21T00:07:22.163Z,34.88
2023-01-21T00:09:29.126Z,36.97
2023-01-21T00:11:36.308Z,32.90
2023-01-21T00:13:43.457Z,35.40
2023-01-21T00:15:50.658Z,34.45
2023-01-21T00:17:59.336Z,36.17
2023-01-21T00:20:07.806Z,36.88
2023-01-21T00:22:14.725Z,33.00
2023-01-21T00:24:23.696Z,43.85
2023-01-21T00:26:30.677Z,45.15
2023-01-21T00:28:39.698Z,45.90
2023-01-21T00:30:46.919Z,44.85
2023-01-21T00:32:54.841Z,41.45
2023-01-21T00:35:03.649Z,40.72
2023-01-21T00:37:10.522Z,42.70
2023-01-21T00:39:17.647Z,39.03
2023-01-21T00:41:25.500Z,43.05
2023-01-21T00:43:32.890Z,53.17
2023-01-21T00:45:39.761Z,63.90
2023-01-21T00:47:47.099Z,65.50
2023-01-21T00:49:54.089Z,66.40
2023-01-21T00:52:03.091Z,65.93
2023-01-21T00:54:09.972Z,69.05
2023-01-21T00:56:17.614Z,66.03
2023-01-21T00:58:24.384Z,56.15
2023-01-21T01:00:31.721Z,58.65
2023-01-21T01:02:38.670Z,56.55
2023-01-21T01:04:46.033Z,63.80
2023-01-21T01:06:53.026Z,62.78
2023-01-21T01:09:02.345Z,51.67
2023-01-21T01:11:09.483Z,57.75
2023-01-21T01:13:16.591Z,56.08
2023-01-21T01:15:23.731Z,49.15
2023-01-21T01:17:30.965Z,42.90
2023-01-21T01:19:37.894Z,41.60
2023-01-21T01:21:45.022Z,41.47
2023-01-21T01:23:53.059Z,38.95
2023-01-21T01:26:03.486Z,38.97
2023-01-21T01:28:10.695Z,42.70
2023-01-21T01:30:18.348Z,43.78
2023-01-21T01:32:25.367Z,38.78
2023-01-21T01:34:32.563Z,39.63
2023-01-21T01:36:39.388Z,37.50
2023-01-21T01:38:46.985Z,35.97
2023-01-21T01:40:55.188Z,40.00
2023-01-21T01:43:04.159Z,37.25
2023-01-21T01:45:18.920Z,37.35
2023-01-21T01:47:28.964Z,35.67
2023-01-21T01:49:35.893Z,34.38
2023-01-21T01:51:50.794Z,40.00
2023-01-21T01:53:57.729Z,32.88
2023-01-21T01:56:05.682Z,28.83
2023-01-21T01:58:16.495Z,30.70
2023-01-21T02:00:24.347Z,30.33
2023-01-21T02:02:31.553Z,33.08
2023-01-21T02:04:43.979Z,30.13
2023-01-21T02:06:51.983Z,26.88
2023-01-21T02:09:00.234Z,29.02
2023-01-21T02:11:14.483Z,28.67
2023-01-21T02:13:22.997Z,26.05
2023-01-21T02:15:36.629Z,25.75
2023-01-21T02:17:57.296Z,27.65
2023-01-21T02:20:38.864Z,30.83
2023-01-21T02:22:53.883Z,29.30
2023-01-21T02:25:38.386Z,31.40
2023-01-21T02:28:07.896Z,29.60
2023-01-21T02:30:49.667Z,29.92
2023-01-21T02:33:33.935Z,27.88
2023-01-21T02:35:46.081Z,31.25
2023-01-21T02:37:56.413Z,30.48
2023-01-21T02:40:14.314Z,26.67
2023-01-21T02:42:29.912Z,24.63
2023-01-21T02:44:42.134Z,31.50
2023-01-21T02:49:03.732Z,26.40
2023-01-21T02:51:10.736Z,28.77
2023-01-21T02:53:28.541Z,29.13
2023-01-21T02:55:38.997Z,24.25
2023-01-21T02:57:49.819Z,27.08
2023-01-21T02:59:59.507Z,25.38
2023-01-21T03:02:15.725Z,24.27
2023-01-21T03:04:45.409Z,26.55
2023-01-21T03:07:02.682Z,23.55
2023-01-21T03:09:17.383Z,25.13
2023-01-21T03:11:25.383Z,26.85
2023-01-21T03:13:53.817Z,26.25
2023-01-21T03:16:18.603Z,24.85
2023-01-21T03:18:31.836Z,25.70
2023-01-21T03:20:45.568Z,25.33
2023-01-21T03:22:56.362Z,24.23
2023-01-21T03:25:05.258Z,22.02
2023-01-21T03:27:13.101Z,23.52
2023-01-21T03:29:22.544Z,22.38
2023-01-21T03:31:31.850Z,20.98
2023-01-21T03:33:41.972Z,23.05
2023-01-21T03:35:53.606Z,23.55
2023-01-21T03:40:19.880Z,22.67
2023-01-21T03:42:27.337Z,22.63
2023-01-21T03:44:34.495Z,18.58
2023-01-21T03:46:47.226Z,19.33
2023-01-21T03:48:56.355Z,22.05
2023-01-21T03:51:10.122Z,22.73
2023-01-21T03:53:17.278Z,21.38
2023-01-21T03:55:24.655Z,20.38
2023-01-21T03:57:31.581Z,21.25
2023-01-21T03:59:38.510Z,20.42
2023-01-21T04:01:45.524Z,20.15
2023-01-21T04:03:52.880Z,22.17
2023-01-21T04:05:59.645Z,20.95
2023-01-21T04:08:09.031Z,21.27
2023-01-21T04:10:16.628Z,26.23
2023-01-21T04:12:24.104Z,20.55
2023-01-21T04:14:31.033Z,20.90
2023-01-21T04:16:38.214Z,19.10
2023-01-21T04:18:45.070Z,20.05
2023-01-21T04:20:52.321Z,21.08
2023-01-21T04:22:59.195Z,20.33
2023-01-21T04:25:08.717Z,19.70
2023-01-21T04:27:15.509Z,23.15
2023-01-21T04:29:22.633Z,17.92
2023-01-21T04:31:29.532Z,23.88
2023-01-21T04:33:36.880Z,21.80
2023-01-21T04:35:43.911Z,22.45
2023-01-21T04:37:51.001Z,21.05
2023-01-21T04:39:57.926Z,24.10
2023-01-21T04:42:06.749Z,23.08
2023-01-21T04:44:13.621Z,31.55
2023-01-21T04:46:20.822Z,28.48
2023-01-21T04:48:27.625Z,26.13
2023-01-21T04:50:34.693Z,29.88
2023-01-21T04:52:41.537Z,31.00
2023-01-21T04:54:48.596Z,34.88
2023-01-21T04:56:55.723Z,25.65
2023-01-21T04:59:04.120Z,26.08
2023-01-21T05:01:11.256Z,23.52
2023-01-21T05:03:18.130Z,26.50
2023-01-21T05:05:25.119Z,20.02
2023-01-21T05:07:31.972Z,24.08
2023-01-21T05:09:38.856Z,22.02
2023-01-21T05:11:45.581Z,23.35
2023-01-21T05:13:52.553Z,22.40
2023-01-21T05:16:09.231Z,20.13
2023-01-21T05:18:16.512Z,23.95
2023-01-21T05:20:23.377Z,19.67
2023-01-21T05:22:33.029Z,19.10
2023-01-21T05:24:39.954Z,19.48
2023-01-21T05:26:47.083Z,16.58
2023-01-21T05:28:54.022Z,17.63
2023-01-21T05:31:06.218Z,15.13
2023-01-21T05:35:21.141Z,18.25
2023-01-21T05:37:28.111Z,18.45
2023-01-21T05:39:35.242Z,15.68
2023-01-21T05:41:42.577Z,16.13
2023-01-21T05:43:49.634Z,17.20
2023-01-21T05:45:56.417Z,17.15
2023-01-21T05:48:05.354Z,21.48
2023-01-21T05:50:13.569Z,17.20
2023-01-21T05:52:20.738Z,17.88
2023-01-21T05:54:27.622Z,17.75
2023-01-21T05:56:34.693Z,17.63
2023-01-21T05:58:41.466Z,15.02
2023-01-21T06:00:49.403Z,18.13
2023-01-21T06:02:56.338Z,17.67
2023-01-21T06:05:05.414Z,18.70
2023-01-21T06:07:12.401Z,16.35
2023-01-21T06:09:19.520Z,16.95
2023-01-21T06:11:26.379Z,16.42
2023-01-21T06:13:33.526Z,18.95
2023-01-21T06:15:40.514Z,18.25
2023-01-21T06:17:47.786Z,16.88
2023-01-21T06:19:54.617Z,17.45
2023-01-21T06:22:03.433Z,17.90
2023-01-21T06:24:10.767Z,17.70
2023-01-21T06:26:17.906Z,20.88
2023-01-21T06:28:25.189Z,17.92
2023-01-21T06:30:32.569Z,17.52
2023-01-21T06:32:39.594Z,16.75
2023-01-21T06:34:46.867Z,20.15
2023-01-21T06:36:53.761Z,19.20
2023-01-21T06:39:02.473Z,19.77
2023-01-21T06:41:09.448Z,16.95
2023-01-21T06:43:16.635Z,18.00
2023-01-21T06:45:23.486Z,19.42
2023-01-21T06:47:30.581Z,19.92
2023-01-21T06:49:37.560Z,16.42
2023-01-21T06:51:44.894Z,22.65
2023-01-21T06:53:51.720Z,15.30
2023-01-21T06:56:00.552Z,16.27
2023-01-21T06:58:07.514Z,18.80
2023-01-21T07:00:16.505Z,17.08
2023-01-21T07:02:24.000Z,16.63
2023-01-21T07:04:31.376Z,18.33
2023-01-21T07:06:38.192Z,18.50
2023-01-21T07:08:45.528Z,18.98
2023-01-21T07:10:52.456Z,19.15
2023-01-21T07:13:01.267Z,18.20
2023-01-21T07:15:09.233Z,17.00
2023-01-21T07:17:17.452Z,16.45
2023-01-21T07:19:24.455Z,16.80
2023-01-21T07:21:31.990Z,18.10
2023-01-21T07:23:38.869Z,21.42
2023-01-21T07:25:46.345Z,16.13
2023-01-21T07:27:53.168Z,17.77
2023-01-21T07:30:02.303Z,16.92
2023-01-21T07:32:09.500Z,14.55
2023-01-21T07:34:16.575Z,17.63
2023-01-21T07:36:23.541Z,16.80
2023-01-21T07:38:31.293Z,18.02
2023-01-21T07:40:38.199Z,19.48
2023-01-21T07:42:45.344Z,17.52
2023-01-21T07:44:52.168Z,15.23
2023-01-21T07:47:00.940Z,16.48
2023-01-21T07:49:07.867Z,17.42
2023-01-21T07:51:17.925Z,15.70
2023-01-21T07:53:25.140Z,16.63
2023-01-21T07:55:32.358Z,15.77
2023-01-21T07:57:39.352Z,14.73
2023-01-21T07:59:46.267Z,15.70
2023-01-21T08:01:53.235Z,15.40
2023-01-21T08:04:02.634Z,14.13
2023-01-21T08:06:10.692Z,13.98
2023-01-21T08:08:17.606Z,13.63
2023-01-21T08:10:24.893Z,15.70
2023-01-21T08:12:31.825Z,18.40
2023-01-21T08:14:39.619Z,16.48
2023-01-21T08:16:46.546Z,15.57
2023-01-21T08:18:54.037Z,17.92
2023-01-21T08:21:02.995Z,13.13
2023-01-21T08:23:10.189Z,14.25
2023-01-21T08:25:17.220Z,14.85
2023-01-21T08:27:24.537Z,18.50
2023-01-21T08:29:31.429Z,16.48
2023-01-21T08:31:38.520Z,13.80
2023-01-21T08:33:45.392Z,16.08
2023-01-21T08:35:52.801Z,13.38
2023-01-21T08:38:01.485Z,14.52
2023-01-21T08:40:10.154Z,16.80
2023-01-21T08:42:17.077Z,15.23
2023-01-21T08:44:23.953Z,14.23
2023-01-21T08:46:31.236Z,16.30
2023-01-21T08:48:38.151Z,14.90
2023-01-21T08:50:45.148Z,15.20
2023-01-21T08:52:55.328Z,14.23
2023-01-21T08:55:03.903Z,18.25
2023-01-21T08:57:11.355Z,14.02
2023-01-21T08:59:18.477Z,14.80
2023-01-21T09:01:26.686Z,16.95
2023-01-21T09:03:33.502Z,14.48
2023-01-21T09:05:40.587Z,13.20
2023-01-21T09:07:48.239Z,16.23
2023-01-21T09:09:55.472Z,16.45
2023-01-21T09:12:03.969Z,16.90
2023-01-21T09:14:11.253Z,15.75
2023-01-21T09:16:19.820Z,19.75
2023-01-21T09:18:27.039Z,15.27
2023-01-21T09:20:33.877Z,14.80
2023-01-21T09:22:41.617Z,15.27
2023-01-21T09:24:48.575Z,17.10
2023-01-21T09:26:56.389Z,13.55
2023-01-21T09:29:05.417Z,14.75
2023-01-21T09:31:14.172Z,15.10
2023-01-21T09:33:21.008Z,16.08
2023-01-21T09:35:28.138Z,14.30
2023-01-21T09:37:38.186Z,14.80
2023-01-21T09:39:46.066Z,15.10
2023-01-21T09:41:55.475Z,15.52
2023-01-21T09:44:15.764Z,15.43
2023-01-21T09:46:32.620Z,17.25
2023-01-21T09:48:43.996Z,13.50
2023-01-21T09:50:53.813Z,15.40
2023-01-21T09:53:09.354Z,15.13
2023-01-21T09:55:20.391Z,19.17
2023-01-21T09:57:57.420Z,16.30
2023-01-21T10:00:21.096Z,16.27
2023-01-21T10:02:32.987Z,17.05
2023-01-21T10:04:49.283Z,15.68
2023-01-21T10:07:02.498Z,19.83
2023-01-21T10:09:36.561Z,15.63
2023-01-21T10:11:53.828Z,15.55
2023-01-21T10:14:13.506Z,13.63
2023-01-21T10:16:29.238Z,15.57
2023-01-21T10:18:40.668Z,14.27
2023-01-21T10:20:56.553Z,16.48
2023-01-21T10:23:09.112Z,16.23
2023-01-21T10:25:27.918Z,15.63
2023-01-21T10:27:39.089Z,17.35
2023-01-21T10:29:47.295Z,17.13
2023-01-21T10:32:01.643Z,14.32
2023-01-21T10:34:15.671Z,15.15
2023-01-21T10:36:42.937Z,19.35
2023-01-21T10:38:58.363Z,19.13
2023-01-21T10:41:12.661Z,23.15
2023-01-21T10:43:31.724Z,24.25
2023-01-21T10:45:49.769Z,20.95
2023-01-21T10:48:06.112Z,23.05
2023-01-21T10:50:27.959Z,22.25
2023-01-21T10:52:41.459Z,24.30
2023-01-21T10:54:55.042Z,24.17
2023-01-21T10:57:10.623Z,19.63
2023-01-21T10:59:20.412Z,23.52
2023-01-21T11:01:32.034Z,24.67
2023-01-21T11:03:44.760Z,24.02
2023-01-21T11:05:52.249Z,23.00
2023-01-21T11:07:59.998Z,25.75
2023-01-21T11:10:08.814Z,19.75
2023-01-21T11:12:19.119Z,21.73
2023-01-21T11:14:29.103Z,26.48
2023-01-21T11:16:39.098Z,25.48
2023-01-21T11:18:47.933Z,24.10
2023-01-21T11:20:54.963Z,28.33
2023-01-21T11:23:02.451Z,25.13
2023-01-21T11:25:30.892Z,28.55
2023-01-21T11:27:40.111Z,34.38
2023-01-21T11:29:47.396Z,40.72
2023-01-21T11:32:02.912Z,37.78
2023-01-21T11:34:17.146Z,42.55
2023-01-21T11:36:24.662Z,38.08
2023-01-21T11:38:37.123Z,44.92
2023-01-21T11:40:44.143Z,37.25
2023-01-21T11:42:53.474Z,42.78
2023-01-21T11:45:02.442Z,37.83
2023-01-21T11:47:37.070Z,34.38
2023-01-21T11:49:50.945Z,44.85
2023-01-21T11:52:19.902Z,45.33
2023-01-21T11:54:27.703Z,49.80
2023-01-21T11:56:34.725Z,47.75
2023-01-21T11:58:44.313Z,48.17
2023-01-21T12:00:54.065Z,55.20
2023-01-21T12:03:03.996Z,56.55
2023-01-21T12:05:19.019Z,46.45
2023-01-21T12:07:30.559Z,45.80
2023-01-21T12:09:37.924Z,41.92
2023-01-21T12:11:45.155Z,41.70
2023-01-21T12:14:00.956Z,51.05
2023-01-21T12:16:30.051Z,45.90
2023-01-21T12:18:53.154Z,49.00
2023-01-21T12:21:07.303Z,44.08
2023-01-21T12:23:36.089Z,47.10
2023-01-21T12:25:49.467Z,47.30
2023-01-21T12:28:16.469Z,40.95
2023-01-21T12:30:35.960Z,41.80
2023-01-21T12:32:47.054Z,42.30
2023-01-21T12:34:58.557Z,45.80
2023-01-21T12:37:15.649Z,41.90
2023-01-21T12:39:28.951Z,44.22
2023-01-21T12:41:37.693Z,41.92
2023-01-21T12:43:47.654Z,42.70
2023-01-21T12:45:58.917Z,44.42
2023-01-21T12:48:13.114Z,48.25
2023-01-21T12:50:31.918Z,40.03
2023-01-21T12:52:47.240Z,45.28
2023-01-21T12:55:02.050Z,35.33
2023-01-21T12:57:19.371Z,35.03
2023-01-21T12:59:33.213Z,36.95
2023-01-21T13:01:55.106Z,32.60
2023-01-21T13:04:13.838Z,36.45
2023-01-21T13:06:38.016Z,32.30
2023-01-21T13:09:11.716Z,36.20
2023-01-21T13:11:23.876Z,36.67
2023-01-21T13:13:36.837Z,32.50
2023-01-21T13:15:46.988Z,34.88
2023-01-21T13:17:58.725Z,33.97
2023-01-21T13:20:16.193Z,32.28
2023-01-21T13:22:37.717Z,28.52
2023-01-21T13:25:15.420Z,30.97
2023-01-21T13:27:26.791Z,31.23
2023-01-21T13:29:45.247Z,32.20
2023-01-21T13:31:59.942Z,31.05
2023-01-21T13:34:17.162Z,35.10
2023-01-21T13:36:38.019Z,32.90
2023-01-21T13:38:52.315Z,32.72
2023-01-21T13:41:08.917Z,35.22
2023-01-21T13:43:39.651Z,37.00
2023-01-21T13:46:00.092Z,30.70
2023-01-21T13:48:28.353Z,34.15
2023-01-21T13:50:53.396Z,37.55
2023-01-21T13:53:15.960Z,37.20
2023-01-21T13:55:34.662Z,42.75
2023-01-21T13:58:02.650Z,37.45
2023-01-21T14:00:15.708Z,37.65
2023-01-21T14:02:26.485Z,40.70
2023-01-21T14:04:40.612Z,38.90
2023-01-21T14:06:54.092Z,47.13
2023-01-21T14:09:04.177Z,55.90
2023-01-21T14:11:16.989Z,58.70
2023-01-21T14:14:04.331Z,103.57
2023-01-21T14:16:43.026Z,57.55
2023-01-21T14:19:12.042Z,69.60
2023-01-21T14:21:31.718Z,87.53
2023-01-21T14:24:07.315Z,96.85
2023-01-21T14:26:27.295Z,101.20
2023-01-21T14:28:43.439Z,136.73
2023-01-21T14:30:54.433Z,147.18
2023-01-21T14:33:04.442Z,125.97
2023-01-21T14:35:22.953Z,141.20
2023-01-21T14:37:34.855Z,131.52
2023-01-21T14:39:52.318Z,135.98
2023-01-21T14:42:05.542Z,119.95
2023-01-21T14:44:41.865Z,129.40
2023-01-21T14:47:15.765Z,162.05
2023-01-21T14:49:43.431Z,153.60
2023-01-21T14:51:54.499Z,155.27
2023-01-21T14:54:06.088Z,138.10
2023-01-21T14:56:20.337Z,129.55
2023-01-21T14:58:29.976Z,131.07
2023-01-21T15:00:40.133Z,122.85
2023-01-21T15:02:49.882Z,118.75
2023-01-21T15:04:58.691Z,103.82
2023-01-21T15:07:11.393Z,97.55
2023-01-21T15:09:25.899Z,81.97
2023-01-21T15:11:37.688Z,75.68
2023-01-21T15:13:45.124Z,73.90
2023-01-21T15:18:37.689Z,65.47
2023-01-21T15:20:51.924Z,77.78
2023-01-21T15:23:08.076Z,87.88
2023-01-21T15:25:23.804Z,77.78
2023-01-21T15:27:32.726Z,71.95
2023-01-21T15:29:41.240Z,65.72
2023-01-21T15:31:49.074Z,63.75
2023-01-21T15:34:02.513Z,53.72
2023-01-21T15:36:21.683Z,57.50
2023-01-21T15:38:29.216Z,61.42
2023-01-21T15:40:42.292Z,59.15
2023-01-21T15:42:57.760Z,55.85
2023-01-21T15:45:32.388Z,62.35
2023-01-21T15:47:57.026Z,59.40
2023-01-21T15:50:11.379Z,55.70
2023-01-21T15:52:36.735Z,57.10
2023-01-21T15:54:52.366Z,55.03
2023-01-21T15:57:07.894Z,56.70
2023-01-21T15:59:30.030Z,54.35
2023-01-21T16:01:39.791Z,61.20
2023-01-21T16:03:50.485Z,57.10
2023-01-21T16:06:05.763Z,58.03
2023-01-21T16:08:24.146Z,57.97
2023-01-21T16:10:35.372Z,59.95
2023-01-21T16:12:50.898Z,56.90
2023-01-21T16:15:07.705Z,55.80
2023-01-21T16:17:21.426Z,59.60
2023-01-21T16:19:32.378Z,65.13
2023-01-21T16:21:43.508Z,61.92
2023-01-21T16:23:53.328Z,63.95
2023-01-21T16:26:00.817Z,64.10
2023-01-21T16:28:08.180Z,54.97
2023-01-21T16:30:18.458Z,54.72
2023-01-21T16:32:25.742Z,59.15
2023-01-21T16:34:45.151Z,58.22
2023-01-21T16:36:54.083Z,59.60
2023-01-21T16:39:08.740Z,55.42
2023-01-21T16:41:28.624Z,53.30
2023-01-21T16:43:37.146Z,52.38
2023-01-21T16:45:50.853Z,57.10
2023-01-21T16:47:59.953Z,61.08
2023-01-21T16:50:20.336Z,73.38
2023-01-21T16:52:29.364Z,68.80
2023-01-21T16:54:36.693Z,63.00
2023-01-21T16:56:50.953Z,65.68
2023-01-21T16:58:58.379Z,87.95
2023-01-21T17:01:08.667Z,95.40
2023-01-21T17:03:17.299Z,100.45
2023-01-21T17:05:24.567Z,97.28
2023-01-21T17:07:36.428Z,105.00
2023-01-21T17:09:43.418Z,100.38
2023-01-21T17:11:51.092Z,97.28
2023-01-21T17:13:58.123Z,83.70
2023-01-21T17:16:06.590Z,84.22
2023-01-21T17:18:20.729Z,82.07
2023-01-21T17:20:41.325Z,75.43
2023-01-21T17:22:50.093Z,75.25
2023-01-21T17:25:09.512Z,74.85
2023-01-21T17:27:21.352Z,83.00
2023-01-21T17:29:32.188Z,65.72
2023-01-21T17:31:42.317Z,76.53
2023-01-21T17:34:03.126Z,78.43
2023-01-21T17:36:12.351Z,79.22
2023-01-21T17:38:32.743Z,88.65
2023-01-21T17:40:43.251Z,82.85
2023-01-21T17:42:50.484Z,87.45
2023-01-21T17:45:00.586Z,79.18
2023-01-21T17:47:07.699Z,92.85
2023-01-21T17:49:20.682Z,89.78
2023-01-21T17:51:29.565Z,85.88
2023-01-21T17:53:45.895Z,83.32
2023-01-21T17:56:04.856Z,98.82
2023-01-21T17:58:39.266Z,101.72
2023-01-21T18:00:47.792Z,91.60
2023-01-21T18:02:54.676Z,85.07
2023-01-21T18:05:01.745Z,80.30
2023-01-21T18:07:18.653Z,85.18
2023-01-21T18:09:29.370Z,86.38
2023-01-21T18:11:36.245Z,94.25
2023-01-21T18:13:43.486Z,97.78
2023-01-21T18:15:52.681Z,97.70
2023-01-21T18:18:03.316Z,90.10
2023-01-21T18:20:18.875Z,101.55
2023-01-21T18:22:27.832Z,103.93
2023-01-21T18:24:38.266Z,100.13
2023-01-21T18:26:45.150Z,93.10
2023-01-21T18:28:52.233Z,85.35
2023-01-21T18:31:00.596Z,92.63
2023-01-21T18:33:08.092Z,86.07
2023-01-21T18:35:17.516Z,87.65
2023-01-21T18:37:24.951Z,95.90
2023-01-21T18:39:31.807Z,94.05
2023-01-21T18:41:40.699Z,90.07
2023-01-21T18:43:47.518Z,98.38
2023-01-21T18:45:54.924Z,90.13
2023-01-21T18:48:02.093Z,64.70
2023-01-21T18:50:12.447Z,112.75
2023-01-21T18:52:20.550Z,112.22
2023-01-21T18:54:27.829Z,110.75
2023-01-21T18:56:34.706Z,78.85
2023-01-21T18:58:43.790Z,89.28
2023-01-21T19:00:50.755Z,146.50
2023-01-21T19:02:59.325Z,115.38
2023-01-21T19:05:06.195Z,109.90
2023-01-21T19:07:17.772Z,103.03
2023-01-21T19:09:26.040Z,100.28
2023-01-21T19:11:33.221Z,110.07
2023-01-21T19:13:40.144Z,76.80
2023-01-21T19:15:50.017Z,80.45
2023-01-21T19:17:58.349Z,87.43
2023-01-21T19:20:05.384Z,85.70
2023-01-21T19:22:16.964Z,88.57
2023-01-21T19:24:24.395Z,85.30
2023-01-21T19:26:31.477Z,89.32
2023-01-21T19:28:38.914Z,85.07
2023-01-21T19:30:50.495Z,85.10
2023-01-21T19:32:58.714Z,71.88
2023-01-21T19:35:05.838Z,68.85
2023-01-21T19:37:16.549Z,74.57
2023-01-21T19:39:26.378Z,73.18
2023-01-21T19:41:33.676Z,67.28
2023-01-21T19:43:40.501Z,74.50
2023-01-21T19:45:49.320Z,65.22
2023-01-21T19:47:57.178Z,61.28
2023-01-21T19:50:04.909Z,62.38
2023-01-21T19:52:12.307Z,57.25
2023-01-21T19:54:19.616Z,63.40
2023-01-21T19:56:27.382Z,74.47
2023-01-21T19:58:35.072Z,83.53
2023-01-21T20:00:41.996Z,85.00
2023-01-21T20:02:50.562Z,97.43
2023-01-21T20:04:57.727Z,88.32
2023-01-21T20:07:04.616Z,87.82
2023-01-21T20:09:18.799Z,73.63
2023-01-21T20:11:25.751Z,73.78
2023-01-21T20:13:37.424Z,65.80
2023-01-21T20:15:45.939Z,66.60
2023-01-21T20:17:56.551Z,68.90
2023-01-21T20:20:03.423Z,77.05
2023-01-21T20:22:10.709Z,71.68
2023-01-21T20:24:17.637Z,67.35
2023-01-21T20:26:28.143Z,60.75
2023-01-21T20:28:40.751Z,62.95
2023-01-21T20:30:48.252Z,61.80
2023-01-21T20:32:57.009Z,60.58
2023-01-21T20:35:04.498Z,59.20
2023-01-21T20:37:13.779Z,64.03
2023-01-21T20:39:21.063Z,67.88
2023-01-21T20:41:28.092Z,69.75
2023-01-21T20:43:35.582Z,67.80
2023-01-21T20:45:46.108Z,64.15
2023-01-21T20:47:58.032Z,66.65
2023-01-21T20:50:04.906Z,64.68
2023-01-21T20:52:14.342Z,69.40
2023-01-21T20:54:21.215Z,77.72
2023-01-21T20:56:30.855Z,79.50
2023-01-21T20:58:37.831Z,85.88
2023-01-21T21:00:46.864Z,77.97
2023-01-21T21:02:56.449Z,85.38
2023-01-21T21:05:05.415Z,81.68
2023-01-21T21:07:17.720Z,77.00
2023-01-21T21:09:24.900Z,81.10
2023-01-21T21:11:31.840Z,86.43
2023-01-21T21:13:39.518Z,91.95
2023-01-21T21:15:47.110Z,87.80
2023-01-21T21:17:54.244Z,92.10
2023-01-21T21:20:01.065Z,87.50
2023-01-21T21:22:10.172Z,93.10
2023-01-21T21:24:16.912Z,89.25
2023-01-21T21:26:25.833Z,86.90
2023-01-21T21:28:32.656Z,86.85
2023-01-21T21:30:39.971Z,89.95
2023-01-21T21:32:47.160Z,84.03
2023-01-21T21:34:58.096Z,76.50
2023-01-21T21:37:05.019Z,82.45
2023-01-21T21:39:20.136Z,87.18
2023-01-21T21:41:45.183Z,84.65
2023-01-21T21:43:52.166Z,83.65
2023-01-21T21:46:15.907Z,80.63
2023-01-21T21:48:42.930Z,95.00
2023-01-21T21:50:57.419Z,82.85
2023-01-21T21:53:04.359Z,92.68
2023-01-21T21:55:16.698Z,89.90
2023-01-21T21:57:23.790Z,110.00
2023-01-21T21:59:31.078Z,155.75
2023-01-21T22:01:38.307Z,163.48
2023-01-21T22:03:45.911Z,124.97
2023-01-21T22:05:56.049Z,123.95
2023-01-21T22:08:04.714Z,198.75
2023-01-21T22:10:14.967Z,251.10
2023-01-21T22:12:22.106Z,248.05
2023-01-21T22:14:29.179Z,243.00
2023-01-21T22:16:36.812Z,246.93
2023-01-21T22:18:43.950Z,235.35
2023-01-21T22:20:52.925Z,218.45
2023-01-21T22:22:59.739Z,198.48
2023-01-21T22:25:07.085Z,193.68
2023-01-21T22:27:15.699Z,185.85
2023-01-21T22:29:22.838Z,188.65
2023-01-21T22:31:31.018Z,160.52
2023-01-21T22:33:38.787Z,156.25
2023-01-21T22:35:46.217Z,156.38
2023-01-21T22:37:53.422Z,183.75
2023-01-21T22:40:00.362Z,154.25
2023-01-21T22:42:07.608Z,140.63
2023-01-21T22:44:16.272Z,147.93
2023-01-21T22:46:24.895Z,152.60
2023-01-21T22:48:33.554Z,183.85
2023-01-21T22:50:45.494Z,194.60
2023-01-21T22:52:52.636Z,182.13
2023-01-21T22:55:00.034Z,156.80
2023-01-21T22:57:06.990Z,161.23
2023-01-21T22:59:16.165Z,152.98
2023-01-21T23:01:27.710Z,175.88
2023-01-21T23:03:35.206Z,164.68
2023-01-21T23:05:42.065Z,154.25
2023-01-21T23:07:49.202Z,223.27
2023-01-21T23:09:56.080Z,219.52
2023-01-21T23:12:03.409Z,212.18
2023-01-21T23:14:11.514Z,236.75
2023-01-21T23:16:22.031Z,203.18
2023-01-21T23:18:30.481Z,186.48
2023-01-21T23:20:37.415Z,180.50
2023-01-21T23:22:45.007Z,213.05
2023-01-21T23:24:51.850Z,239.25
2023-01-21T23:26:59.158Z,226.13
2023-01-21T23:29:06.695Z,233.38
2023-01-21T23:31:16.378Z,229.57
2023-01-21T23:33:25.363Z,238.05
2023-01-21T23:35:34.258Z,222.88
2023-01-21T23:37:41.823Z,200.80
2023-01-21T23:39:48.847Z,153.57
2023-01-21T23:41:55.979Z,150.65
2023-01-21T23:44:03.762Z,141.00
2023-01-21T23:46:12.081Z,121.90
2023-01-21T23:48:19.300Z,118.65
2023-01-21T23:50:27.959Z,106.95
2023-01-21T23:52:35.265Z,98.40
2023-01-21T23:54:42.243Z,96.15
2023-01-21T23:56:49.476Z,94.63
2023-01-21T23:58:56.809Z,107.07
